createdAt,value
2019-01-31T00:00:56.235Z,1.47
2019-01-31T00:01:56.197Z,1.44
2019-01-31T00:02:56.161Z,1.42
2019-01-31T00:03:56.125Z,1.32
2019-01-31T00:04:56.089Z,1.30
2019-01-31T00:05:56.052Z,1.37
2019-01-31T00:06:56.016Z,1.27
2019-01-31T00:07:55.980Z,1.23
2019-01-31T00:08:55.944Z,1.36
2019-01-31T00:09:55.908Z,1.22
2019-01-31T00:10:55.870Z,1.24
2019-01-31T00:11:55.833Z,1.23
2019-01-31T00:12:55.797Z,1.27
2019-01-31T00:13:55.760Z,1.30
2019-01-31T00:14:55.724Z,1.33
2019-01-31T00:15:55.688Z,1.26
2019-01-31T00:16:55.652Z,1.27
2019-01-31T00:17:55.616Z,1.27
2019-01-31T00:18:55.577Z,1.36
2019-01-31T00:19:55.541Z,1.32
2019-01-31T00:20:55.508Z,1.33
2019-01-31T00:21:55.467Z,1.30
2019-01-31T00:22:55.431Z,1.42
2019-01-31T00:23:55.395Z,1.27
2019-01-31T00:24:55.358Z,1.36
2019-01-31T00:25:55.322Z,1.26
2019-01-31T00:26:55.286Z,1.30
2019-01-31T00:27:55.250Z,1.32
2019-01-31T00:28:55.212Z,1.27
2019-01-31T00:29:55.179Z,1.26
2019-01-31T00:30:55.140Z,1.27
2019-01-31T00:31:55.103Z,1.26
2019-01-31T00:32:55.067Z,1.26
2019-01-31T00:33:55.031Z,1.26
2019-01-31T00:34:55.031Z,1.30
2019-01-31T00:35:54.962Z,1.29
2019-01-31T00:36:54.930Z,1.26
2019-01-31T00:37:54.883Z,1.30
2019-01-31T00:38:56.889Z,1.26
2019-01-31T00:39:54.811Z,1.23
2019-01-31T00:40:54.775Z,1.24
2019-01-31T00:41:54.736Z,1.26
2019-01-31T00:42:54.703Z,1.22
2019-01-31T00:43:54.666Z,1.24
2019-01-31T00:44:54.629Z,1.20
2019-01-31T00:45:54.594Z,1.23
2019-01-31T00:46:54.557Z,1.23
2019-01-31T00:47:54.522Z,1.22
2019-01-31T00:48:54.484Z,1.29
2019-01-31T00:49:54.447Z,1.29
2019-01-31T00:50:54.412Z,1.30
2019-01-31T00:51:54.373Z,1.22
2019-01-31T00:52:54.338Z,1.30
2019-01-31T00:53:54.300Z,1.29
2019-01-31T00:54:54.264Z,1.22
2019-01-31T00:55:54.227Z,1.29
2019-01-31T00:56:54.218Z,1.29
2019-01-31T00:57:54.155Z,1.26
2019-01-31T00:58:54.117Z,1.24
2019-01-31T00:59:54.086Z,1.23
2019-01-31T01:00:54.046Z,1.24
2019-01-31T01:01:54.008Z,1.24
2019-01-31T01:02:53.972Z,1.18
2019-01-31T01:03:53.943Z,1.23
2019-01-31T01:04:53.903Z,1.24
2019-01-31T01:05:53.862Z,1.23
2019-01-31T01:06:53.826Z,1.26
2019-01-31T01:07:53.793Z,1.29
2019-01-31T01:08:53.754Z,1.29
2019-01-31T01:09:53.718Z,1.22
2019-01-31T01:10:53.682Z,1.29
2019-01-31T01:11:53.645Z,1.32
2019-01-31T01:12:53.609Z,1.22
2019-01-31T01:13:53.571Z,1.23
2019-01-31T01:14:53.535Z,1.30
2019-01-31T01:15:53.506Z,1.32
2019-01-31T01:16:53.462Z,1.24
2019-01-31T01:17:53.426Z,1.32
2019-01-31T01:18:53.389Z,1.30
2019-01-31T01:19:53.354Z,1.30
2019-01-31T01:20:53.317Z,1.24
2019-01-31T01:21:53.281Z,1.32
2019-01-31T01:22:53.243Z,1.29
2019-01-31T01:23:53.207Z,1.24
2019-01-31T01:24:53.172Z,1.40
2019-01-31T01:25:53.138Z,1.27
2019-01-31T01:26:53.099Z,1.40
2019-01-31T01:27:53.068Z,1.30
2019-01-31T01:28:53.027Z,1.30
2019-01-31T01:29:52.989Z,1.40
2019-01-31T01:30:52.954Z,1.34
2019-01-31T01:31:52.916Z,1.34
2019-01-31T01:32:52.880Z,1.41
2019-01-31T01:33:52.843Z,1.26
2019-01-31T01:35:01.172Z,1.37
2019-01-31T01:35:52.772Z,1.40
2019-01-31T01:36:52.737Z,1.34
2019-01-31T01:37:52.698Z,1.42
2019-01-31T01:38:52.664Z,1.40
2019-01-31T01:39:52.627Z,1.32
2019-01-31T01:40:52.590Z,1.41
2019-01-31T01:41:52.554Z,1.45
2019-01-31T01:42:52.517Z,1.41
2019-01-31T01:43:52.489Z,1.42
2019-01-31T01:44:52.450Z,1.44
2019-01-31T01:45:52.412Z,1.36
2019-01-31T01:46:52.374Z,1.34
2019-01-31T01:47:52.338Z,1.36
2019-01-31T01:48:52.303Z,1.47
2019-01-31T01:49:52.264Z,1.44
2019-01-31T01:50:52.228Z,1.34
2019-01-31T01:51:52.192Z,1.40
2019-01-31T01:52:52.157Z,1.44
2019-01-31T01:53:52.120Z,1.40
2019-01-31T01:54:52.084Z,1.41
2019-01-31T01:55:52.080Z,1.33
2019-01-31T01:56:52.015Z,1.44
2019-01-31T01:57:51.976Z,1.42
2019-01-31T01:58:51.940Z,1.50
2019-01-31T01:59:51.903Z,1.42
2019-01-31T02:00:51.867Z,1.45
2019-01-31T02:01:51.831Z,1.51
2019-01-31T02:02:51.795Z,1.45
2019-01-31T02:03:51.759Z,1.48
2019-01-31T02:04:51.723Z,1.44
2019-01-31T02:05:51.686Z,1.48
2019-01-31T02:06:51.650Z,1.47
2019-01-31T02:07:51.614Z,1.41
2019-01-31T02:08:51.579Z,1.52
2019-01-31T02:09:51.542Z,1.54
2019-01-31T02:10:51.507Z,1.41
2019-01-31T02:11:51.470Z,1.45
2019-01-31T02:12:51.435Z,1.52
2019-01-31T02:13:51.397Z,1.47
2019-01-31T02:14:51.362Z,1.47
2019-01-31T02:15:51.327Z,1.48
2019-01-31T02:16:51.638Z,1.50
2019-01-31T02:17:51.255Z,1.47
2019-01-31T02:18:51.219Z,1.50
2019-01-31T02:19:51.181Z,1.47
2019-01-31T02:20:51.147Z,1.44
2019-01-31T02:21:51.115Z,1.47
2019-01-31T02:22:51.074Z,1.50
2019-01-31T02:23:51.038Z,1.52
2019-01-31T02:24:51.002Z,1.59
2019-01-31T02:25:50.966Z,1.58
2019-01-31T02:26:50.931Z,1.54
2019-01-31T02:27:50.899Z,1.55
2019-01-31T02:28:50.858Z,1.55
2019-01-31T02:29:50.821Z,1.60
2019-01-31T02:30:50.789Z,1.59
2019-01-31T02:31:50.753Z,1.60
2019-01-31T02:32:50.714Z,1.58
2019-01-31T02:33:50.679Z,1.55
2019-01-31T02:34:50.645Z,1.58
2019-01-31T02:35:50.611Z,1.58
2019-01-31T02:36:50.571Z,1.60
2019-01-31T02:37:50.536Z,1.59
2019-01-31T02:38:50.499Z,1.55
2019-01-31T02:39:50.463Z,1.54
2019-01-31T02:40:50.427Z,1.58
2019-01-31T02:41:50.391Z,1.55
2019-01-31T02:42:50.355Z,1.60
2019-01-31T02:43:50.319Z,1.55
2019-01-31T02:44:50.284Z,1.55
2019-01-31T02:45:50.250Z,1.63
2019-01-31T02:46:50.212Z,1.59
2019-01-31T02:47:50.176Z,1.58
2019-01-31T02:48:50.141Z,1.60
2019-01-31T02:49:50.104Z,1.60
2019-01-31T02:50:50.070Z,1.55
2019-01-31T02:51:50.032Z,1.60
2019-01-31T02:52:49.999Z,1.55
2019-01-31T02:53:49.962Z,1.59
2019-01-31T02:54:49.928Z,1.58
2019-01-31T02:55:49.890Z,1.54
2019-01-31T02:56:49.857Z,1.59
2019-01-31T02:57:49.818Z,1.60
2019-01-31T02:58:49.782Z,1.59
2019-01-31T02:59:49.747Z,1.59
2019-01-31T03:00:49.712Z,1.59
2019-01-31T03:01:49.674Z,1.58
2019-01-31T03:02:49.641Z,1.59
2019-01-31T03:03:49.603Z,1.59
2019-01-31T03:04:49.570Z,1.59
2019-01-31T03:05:49.532Z,1.59
2019-01-31T03:06:49.498Z,1.58
2019-01-31T03:07:49.462Z,1.59
2019-01-31T03:08:49.425Z,1.58
2019-01-31T03:09:55.012Z,1.55
2019-01-31T03:10:49.352Z,1.60
2019-01-31T03:11:49.318Z,1.59
2019-01-31T03:12:49.282Z,1.59
2019-01-31T03:13:49.244Z,1.65
2019-01-31T03:14:49.210Z,1.65
2019-01-31T03:15:49.175Z,1.62
2019-01-31T03:16:49.139Z,1.65
2019-01-31T03:17:49.102Z,1.69
2019-01-31T03:18:49.066Z,1.70
2019-01-31T03:19:49.031Z,1.81
2019-01-31T03:20:48.997Z,1.73
2019-01-31T03:21:48.961Z,1.72
2019-01-31T03:22:48.924Z,1.72
2019-01-31T03:23:48.889Z,1.69
2019-01-31T03:24:48.856Z,1.70
2019-01-31T03:25:48.816Z,1.62
2019-01-31T03:26:48.780Z,1.63
2019-01-31T03:27:48.746Z,1.69
2019-01-31T03:28:48.710Z,1.69
2019-01-31T03:29:48.673Z,1.65
2019-01-31T03:30:48.643Z,1.72
2019-01-31T03:31:48.603Z,1.69
2019-01-31T03:32:48.567Z,1.68
2019-01-31T03:33:48.530Z,1.60
2019-01-31T03:34:48.495Z,1.59
2019-01-31T03:35:48.458Z,1.58
2019-01-31T03:36:48.426Z,1.54
2019-01-31T03:37:48.387Z,1.62
2019-01-31T03:38:48.352Z,1.60
2019-01-31T03:39:48.316Z,1.52
2019-01-31T03:40:48.282Z,1.52
2019-01-31T03:41:48.245Z,1.60
2019-01-31T03:42:48.209Z,1.52
2019-01-31T03:43:48.173Z,1.59
2019-01-31T03:44:48.138Z,1.44
2019-01-31T03:45:48.100Z,1.44
2019-01-31T03:46:48.066Z,1.44
2019-01-31T03:47:48.029Z,1.42
2019-01-31T03:48:47.993Z,1.37
2019-01-31T03:49:47.958Z,1.30
2019-01-31T03:50:47.921Z,1.37
2019-01-31T03:51:47.886Z,1.24
2019-01-31T03:52:47.849Z,1.27
2019-01-31T03:53:47.815Z,1.32
2019-01-31T03:54:47.778Z,1.29
2019-01-31T03:55:47.746Z,1.26
2019-01-31T03:56:47.709Z,1.22
2019-01-31T03:57:47.671Z,1.23
2019-01-31T03:58:47.724Z,1.23
2019-01-31T03:59:47.600Z,1.16
2019-01-31T04:00:47.563Z,1.14
2019-01-31T04:01:47.528Z,1.04
2019-01-31T04:02:47.491Z,1.15
2019-01-31T04:03:47.456Z,1.04
2019-01-31T04:04:47.421Z,1.16
2019-01-31T04:05:47.384Z,1.12
2019-01-31T04:06:47.352Z,1.22
2019-01-31T04:07:47.313Z,1.23
2019-01-31T04:08:47.278Z,1.22
2019-01-31T04:09:47.241Z,1.20
2019-01-31T04:10:47.205Z,1.23
2019-01-31T04:11:47.170Z,1.15
2019-01-31T04:12:47.137Z,1.22
2019-01-31T04:13:47.099Z,1.15
2019-01-31T04:14:47.063Z,1.09
2019-01-31T04:15:47.026Z,1.15
2019-01-31T04:16:46.996Z,1.09
2019-01-31T04:17:46.970Z,1.05
2019-01-31T04:18:46.923Z,1.02
2019-01-31T04:19:46.884Z,1.00
2019-01-31T04:20:46.850Z,1.00
2019-01-31T04:21:46.812Z,0.98
2019-01-31T04:22:46.776Z,0.93
2019-01-31T04:23:46.739Z,0.97
2019-01-31T04:24:46.703Z,0.94
2019-01-31T04:25:46.668Z,0.93
2019-01-31T04:26:46.631Z,0.91
2019-01-31T04:27:46.597Z,0.86
2019-01-31T04:28:46.562Z,0.84
2019-01-31T04:29:46.524Z,0.80
2019-01-31T04:30:46.488Z,0.79
2019-01-31T04:31:46.452Z,0.83
2019-01-31T04:32:46.430Z,0.79
2019-01-31T04:33:46.380Z,0.76
2019-01-31T04:34:46.377Z,0.78
2019-01-31T04:35:46.315Z,0.80
2019-01-31T04:36:46.273Z,0.72
2019-01-31T04:37:46.237Z,0.68
2019-01-31T04:38:46.202Z,0.62
2019-01-31T04:39:46.165Z,0.60
2019-01-31T04:40:46.145Z,0.49
2019-01-31T04:41:46.094Z,0.49
2019-01-31T04:42:46.058Z,0.44
2019-01-31T04:43:46.021Z,0.41
2019-01-31T04:44:45.985Z,0.39
2019-01-31T04:45:45.948Z,0.32
2019-01-31T04:46:45.914Z,0.32
2019-01-31T04:47:45.878Z,0.21
2019-01-31T04:48:45.843Z,0.17
2019-01-31T04:49:45.818Z,0.15
2019-01-31T04:50:45.768Z,0.15
2019-01-31T04:51:45.732Z,0.11
2019-01-31T04:52:45.697Z,0.17
2019-01-31T04:53:45.661Z,0.11
2019-01-31T04:54:45.624Z,0.07
2019-01-31T04:55:45.587Z,0.03
2019-01-31T04:56:45.553Z,0.04
2019-01-31T04:57:45.515Z,-0.07
2019-01-31T04:58:45.480Z,-0.10
2019-01-31T04:59:45.443Z,-0.05
2019-01-31T05:00:45.407Z,0.08
2019-01-31T05:01:45.372Z,-0.05
2019-01-31T05:02:45.335Z,-0.07
2019-01-31T05:03:45.446Z,-0.10
2019-01-31T05:04:45.261Z,-0.16
2019-01-31T05:05:45.225Z,-0.26
2019-01-31T05:06:45.190Z,-0.31
2019-01-31T05:07:45.153Z,-0.25
2019-01-31T05:08:45.117Z,-0.40
2019-01-31T05:09:45.079Z,-0.34
2019-01-31T05:10:45.060Z,-0.37
2019-01-31T05:11:45.008Z,-0.36
2019-01-31T05:12:44.972Z,-0.44
2019-01-31T05:13:44.935Z,-0.37
2019-01-31T05:14:44.896Z,-0.49
2019-01-31T05:15:44.860Z,-0.61
2019-01-31T05:16:44.824Z,-0.58
2019-01-31T05:17:44.808Z,-0.65
2019-01-31T05:18:44.749Z,-0.73
2019-01-31T05:19:44.716Z,-0.83
2019-01-31T05:20:44.675Z,-0.85
2019-01-31T05:21:44.637Z,-0.85
2019-01-31T05:22:44.600Z,-0.82
2019-01-31T05:23:44.568Z,-0.92
2019-01-31T05:24:44.535Z,-0.97
2019-01-31T05:25:44.489Z,-1.07
2019-01-31T05:26:44.453Z,-1.10
2019-01-31T05:27:44.415Z,-1.15
2019-01-31T05:28:44.382Z,-1.25
2019-01-31T05:29:44.343Z,-1.23
2019-01-31T05:30:44.304Z,-1.22
2019-01-31T05:31:44.269Z,-1.15
2019-01-31T05:32:44.231Z,-1.28
2019-01-31T05:33:44.193Z,-1.23
2019-01-31T05:34:44.155Z,-1.27
2019-01-31T05:35:44.118Z,-1.23
2019-01-31T05:36:44.082Z,-1.23
2019-01-31T05:37:44.043Z,-1.33
2019-01-31T05:38:44.007Z,-1.27
2019-01-31T05:39:43.969Z,-1.25
2019-01-31T05:40:54.409Z,-1.33
2019-01-31T05:41:44.020Z,-1.38
2019-01-31T05:42:43.859Z,-1.46
2019-01-31T05:43:43.820Z,-1.52
2019-01-31T05:44:43.782Z,-1.52
2019-01-31T05:45:43.744Z,-1.67
2019-01-31T05:46:43.708Z,-1.55
2019-01-31T05:47:43.671Z,-1.62
2019-01-31T05:48:43.634Z,-1.73
2019-01-31T05:49:43.744Z,-1.61
2019-01-31T05:50:43.558Z,-1.54
2019-01-31T05:51:43.520Z,-1.61
2019-01-31T05:52:43.484Z,-1.69
2019-01-31T05:53:43.448Z,-1.55
2019-01-31T05:54:43.410Z,-1.56
2019-01-31T05:55:43.370Z,-1.58
2019-01-31T05:56:43.334Z,-1.58
2019-01-31T05:57:43.296Z,-1.51
2019-01-31T05:58:43.258Z,-1.46
2019-01-31T05:59:43.230Z,-1.48
2019-01-31T06:00:43.184Z,-1.46
2019-01-31T06:01:43.146Z,-1.51
2019-01-31T06:02:43.107Z,-1.45
2019-01-31T06:03:43.070Z,-1.43
2019-01-31T06:04:43.034Z,-1.38
2019-01-31T06:05:42.997Z,-1.37
2019-01-31T06:06:42.957Z,-1.33
2019-01-31T06:07:42.922Z,-1.17
2019-01-31T06:08:42.885Z,-1.28
2019-01-31T06:09:42.845Z,-1.33
2019-01-31T06:10:42.810Z,-1.19
2019-01-31T06:11:42.772Z,-1.16
2019-01-31T06:12:42.734Z,-1.09
2019-01-31T06:13:42.696Z,-1.07
2019-01-31T06:14:42.659Z,-1.09
2019-01-31T06:15:42.628Z,-0.94
2019-01-31T06:16:42.588Z,-0.89
2019-01-31T06:17:42.549Z,-0.82
2019-01-31T06:18:42.514Z,-0.76
2019-01-31T06:19:42.474Z,-0.73
2019-01-31T06:20:42.438Z,-0.72
2019-01-31T06:21:42.399Z,-0.62
2019-01-31T06:22:42.363Z,-0.67
2019-01-31T06:23:42.326Z,-0.64
2019-01-31T06:24:42.290Z,-0.57
2019-01-31T06:25:42.406Z,-0.55
2019-01-31T06:26:42.213Z,-0.61
2019-01-31T06:27:42.178Z,-0.62
2019-01-31T06:28:42.142Z,-0.57
2019-01-31T06:29:42.103Z,-0.51
2019-01-31T06:30:42.067Z,-0.44
2019-01-31T06:31:42.032Z,-0.54
2019-01-31T06:32:41.993Z,-0.54
2019-01-31T06:33:41.957Z,-0.51
2019-01-31T06:34:41.918Z,-0.55
2019-01-31T06:35:41.882Z,-0.62
2019-01-31T06:36:41.845Z,-0.52
2019-01-31T06:37:41.808Z,-0.57
2019-01-31T06:38:41.771Z,-0.55
2019-01-31T06:39:41.738Z,-0.51
2019-01-31T06:40:41.699Z,-0.58
2019-01-31T06:41:41.659Z,-0.57
2019-01-31T06:42:41.623Z,-0.55
2019-01-31T06:43:41.586Z,-0.57
2019-01-31T06:44:41.550Z,-0.51
2019-01-31T06:45:41.512Z,-0.51
2019-01-31T06:46:41.476Z,-0.52
2019-01-31T06:47:41.439Z,-0.55
2019-01-31T06:48:41.403Z,-0.52
2019-01-31T06:49:41.366Z,-0.52
2019-01-31T06:50:41.328Z,-0.52
2019-01-31T06:51:41.293Z,-0.57
2019-01-31T06:52:41.255Z,-0.54
2019-01-31T06:53:41.217Z,-0.51
2019-01-31T06:54:41.181Z,-0.49
2019-01-31T06:55:41.146Z,-0.47
2019-01-31T06:56:41.108Z,-0.49
2019-01-31T06:57:41.071Z,-0.51
2019-01-31T06:58:41.334Z,-0.49
2019-01-31T06:59:40.997Z,-0.54
2019-01-31T07:00:40.961Z,-0.54
2019-01-31T07:01:40.924Z,-0.43
2019-01-31T07:02:40.888Z,-0.52
2019-01-31T07:03:40.852Z,-0.47
2019-01-31T07:04:40.816Z,-0.36
2019-01-31T07:05:40.777Z,-0.52
2019-01-31T07:06:40.741Z,-0.39
2019-01-31T07:07:40.704Z,-0.39
2019-01-31T07:08:40.669Z,-0.33
2019-01-31T07:09:40.637Z,-0.47
2019-01-31T07:10:40.593Z,-0.34
2019-01-31T07:11:40.561Z,-0.25
2019-01-31T07:12:40.521Z,-0.26
2019-01-31T07:13:40.484Z,-0.37
2019-01-31T07:14:40.447Z,-0.26
2019-01-31T07:15:40.415Z,-0.28
2019-01-31T07:16:40.376Z,-0.29
2019-01-31T07:17:40.336Z,-0.25
2019-01-31T07:18:40.300Z,-0.29
2019-01-31T07:19:40.266Z,-0.26
2019-01-31T07:20:40.228Z,-0.34
2019-01-31T07:21:40.192Z,-0.31
2019-01-31T07:22:40.154Z,-0.31
2019-01-31T07:23:40.119Z,-0.26
2019-01-31T07:24:40.082Z,-0.25
2019-01-31T07:25:40.046Z,-0.19
2019-01-31T07:26:41.502Z,-0.14
2019-01-31T07:27:39.971Z,-0.11
2019-01-31T07:28:39.936Z,-0.08
2019-01-31T07:29:39.899Z,-0.04
2019-01-31T07:30:39.863Z,-0.11
2019-01-31T07:31:39.826Z,0.08
2019-01-31T07:32:39.792Z,0.02
2019-01-31T07:33:39.753Z,0.10
2019-01-31T07:34:39.718Z,0.10
2019-01-31T07:35:39.684Z,0.11
2019-01-31T07:36:39.656Z,0.20
2019-01-31T07:37:39.610Z,0.21
2019-01-31T07:38:39.572Z,0.18
2019-01-31T07:39:39.535Z,0.33
2019-01-31T07:40:39.498Z,0.36
2019-01-31T07:41:41.467Z,0.36
2019-01-31T07:42:39.427Z,0.39
2019-01-31T07:43:39.390Z,0.39
2019-01-31T07:44:39.353Z,0.46
2019-01-31T07:45:39.316Z,0.38
2019-01-31T07:46:39.280Z,0.46
2019-01-31T07:47:39.245Z,0.38
2019-01-31T07:48:39.209Z,0.47
2019-01-31T07:49:39.173Z,0.46
2019-01-31T07:50:39.136Z,0.50
2019-01-31T07:51:39.099Z,0.47
2019-01-31T07:52:39.064Z,0.49
2019-01-31T07:53:39.026Z,0.53
2019-01-31T07:54:38.991Z,0.53
2019-01-31T07:55:38.954Z,0.61
2019-01-31T07:56:38.918Z,0.69
2019-01-31T07:57:38.882Z,0.78
2019-01-31T07:58:38.845Z,0.80
2019-01-31T07:59:38.809Z,0.84
2019-01-31T08:00:38.772Z,0.84
2019-01-31T08:01:40.778Z,0.79
2019-01-31T08:02:38.700Z,0.96
2019-01-31T08:03:40.720Z,0.96
2019-01-31T08:04:38.629Z,1.00
2019-01-31T08:05:38.593Z,1.02
2019-01-31T08:06:38.556Z,1.04
2019-01-31T08:07:38.520Z,1.02
2019-01-31T08:08:38.485Z,1.12
2019-01-31T08:09:38.449Z,1.09
2019-01-31T08:10:38.411Z,1.08
2019-01-31T08:11:38.375Z,1.18
2019-01-31T08:12:38.341Z,1.18
2019-01-31T08:13:38.302Z,1.22
2019-01-31T08:14:38.266Z,1.23
2019-01-31T08:15:38.230Z,1.24
2019-01-31T08:16:38.194Z,1.41
2019-01-31T08:17:38.157Z,1.40
2019-01-31T08:18:38.122Z,1.30
2019-01-31T08:19:38.085Z,1.47
2019-01-31T08:20:38.050Z,1.44
2019-01-31T08:21:40.937Z,1.48
2019-01-31T08:22:37.978Z,1.59
2019-01-31T08:23:37.941Z,1.48
2019-01-31T08:24:37.910Z,1.52
2019-01-31T08:25:37.870Z,1.60
2019-01-31T08:26:37.835Z,1.54
2019-01-31T08:27:37.799Z,1.63
2019-01-31T08:28:37.763Z,1.58
2019-01-31T08:29:37.726Z,1.72
2019-01-31T08:30:38.011Z,1.66
2019-01-31T08:31:37.656Z,1.68
2019-01-31T08:32:37.619Z,1.70
2019-01-31T08:33:37.584Z,1.70
2019-01-31T08:34:37.547Z,1.70
2019-01-31T08:35:37.511Z,1.79
2019-01-31T08:36:37.476Z,1.72
2019-01-31T08:37:37.440Z,1.70
2019-01-31T08:38:37.407Z,1.76
2019-01-31T08:39:37.369Z,1.77
2019-01-31T08:40:37.335Z,1.83
2019-01-31T08:41:37.297Z,1.93
2019-01-31T08:42:37.262Z,1.91
2019-01-31T08:43:37.227Z,1.99
2019-01-31T08:44:37.192Z,1.93
2019-01-31T08:45:37.155Z,2.02
2019-01-31T08:46:37.121Z,1.90
2019-01-31T08:47:37.085Z,1.99
2019-01-31T08:48:37.049Z,2.07
2019-01-31T08:49:37.012Z,2.14
2019-01-31T08:50:36.976Z,2.27
2019-01-31T08:51:36.942Z,2.31
2019-01-31T08:52:36.906Z,2.27
2019-01-31T08:53:36.870Z,2.35
2019-01-31T08:54:36.835Z,2.24
2019-01-31T08:55:36.799Z,2.28
2019-01-31T08:56:36.765Z,2.41
2019-01-31T08:57:36.728Z,2.46
2019-01-31T08:58:36.693Z,2.52
2019-01-31T08:59:36.657Z,2.59
2019-01-31T09:00:36.624Z,2.53
2019-01-31T09:01:36.587Z,2.53
2019-01-31T09:02:36.551Z,2.52
2019-01-31T09:03:36.517Z,2.59
2019-01-31T09:04:36.482Z,2.59
2019-01-31T09:05:36.445Z,2.74
2019-01-31T09:06:36.410Z,2.72
2019-01-31T09:07:36.376Z,2.84
2019-01-31T09:08:36.341Z,2.72
2019-01-31T09:09:36.305Z,2.71
2019-01-31T09:10:36.270Z,2.79
2019-01-31T09:11:36.236Z,2.71
2019-01-31T09:12:36.199Z,2.72
2019-01-31T09:13:38.101Z,2.71
2019-01-31T09:14:36.129Z,2.78
2019-01-31T09:15:36.096Z,2.74
2019-01-31T09:16:36.059Z,2.79
2019-01-31T09:17:36.023Z,2.85
2019-01-31T09:18:35.988Z,2.92
2019-01-31T09:19:35.952Z,2.97
2019-01-31T09:20:35.919Z,2.96
2019-01-31T09:21:35.884Z,3.06
2019-01-31T09:22:35.848Z,3.00
2019-01-31T09:23:35.812Z,2.99
2019-01-31T09:24:35.778Z,3.17
2019-01-31T09:25:35.743Z,3.14
2019-01-31T09:26:35.707Z,3.20
2019-01-31T09:27:35.672Z,3.18
2019-01-31T09:28:35.638Z,3.14
2019-01-31T09:29:35.603Z,3.20
2019-01-31T09:30:35.568Z,3.17
2019-01-31T09:31:35.535Z,3.32
2019-01-31T09:32:35.499Z,3.36
2019-01-31T09:33:35.461Z,3.35
2019-01-31T09:34:35.427Z,3.40
2019-01-31T09:35:35.392Z,3.55
2019-01-31T09:36:35.360Z,3.65
2019-01-31T09:37:35.323Z,3.57
2019-01-31T09:38:35.288Z,3.68
2019-01-31T09:39:35.253Z,3.57
2019-01-31T09:40:35.218Z,3.60
2019-01-31T09:41:35.184Z,3.73
2019-01-31T09:42:35.148Z,3.69
2019-01-31T09:43:35.115Z,3.79
2019-01-31T09:44:35.081Z,3.70
2019-01-31T09:45:35.044Z,3.66
2019-01-31T09:46:35.009Z,3.62
2019-01-31T09:47:34.977Z,3.60
2019-01-31T09:48:34.939Z,3.58
2019-01-31T09:49:34.904Z,3.57
2019-01-31T09:50:34.871Z,3.57
2019-01-31T09:51:34.835Z,3.62
2019-01-31T09:52:34.801Z,3.72
2019-01-31T09:53:34.767Z,3.76
2019-01-31T09:54:34.731Z,3.98
2019-01-31T09:55:34.696Z,4.08
2019-01-31T09:56:34.974Z,4.12
2019-01-31T09:57:34.626Z,4.52
2019-01-31T09:58:34.592Z,4.80
2019-01-31T09:59:34.558Z,4.84
2019-01-31T10:00:34.527Z,5.40
2019-01-31T10:01:34.489Z,5.74
2019-01-31T10:02:34.454Z,6.14
2019-01-31T10:03:34.956Z,5.81
2019-01-31T10:04:34.385Z,5.30
2019-01-31T10:05:34.350Z,5.28
2019-01-31T10:06:34.316Z,5.21
2019-01-31T10:07:34.283Z,4.91
2019-01-31T10:08:34.250Z,4.91
2019-01-31T10:09:34.215Z,5.24
2019-01-31T10:10:34.246Z,5.28
2019-01-31T10:11:34.180Z,5.22
2019-01-31T10:12:38.260Z,5.27
2019-01-31T10:13:34.097Z,5.38
2019-01-31T10:14:34.052Z,5.25
2019-01-31T10:15:34.041Z,5.17
2019-01-31T10:16:34.009Z,5.22
2019-01-31T10:17:33.988Z,5.36
2019-01-31T10:18:33.911Z,5.48
2019-01-31T10:19:33.953Z,5.58
2019-01-31T10:20:33.891Z,5.65
2019-01-31T10:21:33.869Z,5.96
2019-01-31T10:22:33.857Z,5.82
2019-01-31T10:23:33.766Z,6.19
2019-01-31T10:24:33.708Z,6.22
2019-01-31T10:25:35.742Z,6.11
2019-01-31T10:26:33.640Z,6.15
2019-01-31T10:27:33.608Z,6.11
2019-01-31T10:28:33.576Z,5.94
2019-01-31T10:29:33.539Z,5.89
2019-01-31T10:30:33.509Z,5.91
2019-01-31T10:31:33.474Z,5.74
2019-01-31T10:32:33.442Z,5.74
2019-01-31T10:33:33.405Z,5.71
2019-01-31T10:34:33.374Z,5.74
2019-01-31T10:35:33.342Z,5.42
2019-01-31T10:36:33.308Z,5.24
2019-01-31T10:37:33.271Z,5.38
2019-01-31T10:38:33.239Z,5.40
2019-01-31T10:39:35.548Z,5.49
2019-01-31T10:40:33.175Z,5.39
2019-01-31T10:41:33.138Z,5.46
2019-01-31T10:42:33.106Z,5.42
2019-01-31T10:43:33.072Z,5.46
2019-01-31T10:44:33.038Z,5.45
2019-01-31T10:45:33.004Z,5.45
2019-01-31T10:46:32.969Z,5.48
2019-01-31T10:47:32.935Z,5.78
2019-01-31T10:48:32.903Z,6.12
2019-01-31T10:49:32.869Z,6.64
2019-01-31T10:50:32.835Z,6.56
2019-01-31T10:51:32.802Z,6.94
2019-01-31T10:52:32.772Z,7.17
2019-01-31T10:53:32.742Z,6.98
2019-01-31T10:54:32.702Z,7.07
2019-01-31T10:55:32.671Z,7.24
2019-01-31T10:56:32.637Z,7.25
2019-01-31T10:57:32.602Z,7.23
2019-01-31T10:58:32.568Z,7.79
2019-01-31T10:59:32.535Z,7.72
2019-01-31T11:00:32.503Z,7.58
2019-01-31T11:01:32.467Z,7.32
2019-01-31T11:02:32.436Z,6.69
2019-01-31T11:03:32.404Z,6.44
2019-01-31T11:04:32.372Z,6.14
2019-01-31T11:05:32.337Z,6.03
2019-01-31T11:06:32.305Z,5.83
2019-01-31T11:07:32.272Z,5.99
2019-01-31T11:08:32.240Z,5.53
2019-01-31T11:09:32.206Z,5.30
2019-01-31T11:10:32.173Z,4.92
2019-01-31T11:11:32.141Z,4.69
2019-01-31T11:12:32.111Z,4.54
2019-01-31T11:13:32.073Z,4.67
2019-01-31T11:14:32.040Z,4.50
2019-01-31T11:15:32.013Z,4.48
2019-01-31T11:16:31.976Z,4.55
2019-01-31T11:17:31.939Z,4.54
2019-01-31T11:18:31.905Z,4.70
2019-01-31T11:19:31.873Z,4.80
2019-01-31T11:20:31.839Z,5.00
2019-01-31T11:21:31.805Z,5.25
2019-01-31T11:22:31.772Z,5.42
2019-01-31T11:23:31.738Z,5.45
2019-01-31T11:24:31.706Z,5.48
2019-01-31T11:25:31.670Z,5.61
2019-01-31T11:26:31.637Z,6.27
2019-01-31T11:27:31.604Z,7.32
2019-01-31T11:28:31.571Z,7.17
2019-01-31T11:29:31.537Z,7.58
2019-01-31T11:30:31.502Z,8.34
2019-01-31T11:31:31.470Z,9.08
2019-01-31T11:32:31.435Z,9.46
2019-01-31T11:33:31.403Z,9.78
2019-01-31T11:34:33.119Z,10.51
2019-01-31T11:35:31.335Z,10.52
2019-01-31T11:36:31.304Z,10.88
2019-01-31T11:37:31.268Z,9.74
2019-01-31T11:38:31.235Z,9.64
2019-01-31T11:39:31.205Z,9.48
2019-01-31T11:40:31.172Z,9.35
2019-01-31T11:41:31.139Z,9.32
2019-01-31T11:42:31.106Z,9.13
2019-01-31T11:43:31.184Z,9.60
2019-01-31T11:44:31.042Z,9.99
2019-01-31T11:45:31.006Z,8.99
2019-01-31T11:46:30.974Z,8.55
2019-01-31T11:47:30.942Z,8.98
2019-01-31T11:48:30.908Z,8.86
2019-01-31T11:49:30.874Z,8.79
2019-01-31T11:50:30.842Z,8.87
2019-01-31T11:51:30.809Z,8.76
2019-01-31T11:52:30.777Z,8.91
2019-01-31T11:53:30.742Z,9.04
2019-01-31T11:54:30.712Z,9.04
2019-01-31T11:55:30.677Z,8.62
2019-01-31T11:56:30.648Z,8.63
2019-01-31T11:57:30.611Z,8.34
2019-01-31T11:58:30.595Z,8.44
2019-01-31T11:59:30.546Z,8.34
2019-01-31T12:00:30.763Z,8.11
2019-01-31T12:01:30.480Z,8.40
2019-01-31T12:02:30.450Z,8.86
2019-01-31T12:03:30.418Z,8.33
2019-01-31T12:04:30.383Z,7.97
2019-01-31T12:05:30.348Z,7.49
2019-01-31T12:06:30.315Z,7.16
2019-01-31T12:07:30.283Z,7.37
2019-01-31T12:08:30.251Z,6.79
2019-01-31T12:09:30.217Z,6.18
2019-01-31T12:10:30.182Z,5.65
2019-01-31T12:11:30.154Z,5.39
2019-01-31T12:12:30.119Z,5.38
2019-01-31T12:13:30.086Z,5.31
2019-01-31T12:14:30.052Z,5.35
2019-01-31T12:15:30.017Z,5.45
2019-01-31T12:16:29.984Z,5.71
2019-01-31T12:17:29.951Z,6.89
2019-01-31T12:18:29.918Z,7.49
2019-01-31T12:19:29.885Z,8.10
2019-01-31T12:20:29.851Z,8.44
2019-01-31T12:21:29.816Z,8.62
2019-01-31T12:22:29.782Z,8.77
2019-01-31T12:23:32.264Z,8.87
2019-01-31T12:24:29.716Z,8.86
2019-01-31T12:25:29.682Z,8.91
2019-01-31T12:26:29.648Z,8.79
2019-01-31T12:27:29.615Z,8.19
2019-01-31T12:28:29.582Z,8.41
2019-01-31T12:29:29.548Z,8.80
2019-01-31T12:30:29.517Z,8.94
2019-01-31T12:31:29.481Z,8.74
2019-01-31T12:32:29.452Z,8.76
2019-01-31T12:33:31.020Z,9.04
2019-01-31T12:34:29.382Z,9.20
2019-01-31T12:35:29.350Z,9.39
2019-01-31T12:36:29.316Z,9.60
2019-01-31T12:37:29.281Z,9.39
2019-01-31T12:38:36.541Z,9.65
2019-01-31T12:39:29.214Z,9.46
2019-01-31T12:40:29.183Z,9.47
2019-01-31T12:41:29.298Z,9.21
2019-01-31T12:42:29.114Z,9.15
2019-01-31T12:43:35.164Z,9.02
2019-01-31T12:44:29.049Z,8.92
2019-01-31T12:45:29.014Z,8.58
2019-01-31T12:46:28.984Z,8.63
2019-01-31T12:47:28.951Z,8.43
2019-01-31T12:48:28.915Z,7.34
2019-01-31T12:49:28.880Z,7.39
2019-01-31T12:50:28.847Z,7.63
2019-01-31T12:51:28.814Z,7.77
2019-01-31T12:52:28.779Z,8.30
2019-01-31T12:53:28.746Z,7.95
2019-01-31T12:54:28.714Z,7.09
2019-01-31T12:55:28.678Z,6.43
2019-01-31T12:56:28.646Z,7.09
2019-01-31T12:57:28.611Z,7.49
2019-01-31T12:58:33.688Z,7.50
2019-01-31T12:59:28.545Z,8.12
2019-01-31T13:00:28.511Z,8.89
2019-01-31T13:01:28.479Z,9.31
2019-01-31T13:02:28.442Z,9.78
2019-01-31T13:03:28.422Z,9.84
2019-01-31T13:04:28.378Z,9.54
2019-01-31T13:05:28.344Z,9.24
2019-01-31T13:06:28.308Z,9.50
2019-01-31T13:07:28.276Z,9.65
2019-01-31T13:08:28.245Z,9.61
2019-01-31T13:09:28.588Z,8.91
2019-01-31T13:10:28.175Z,8.92
2019-01-31T13:11:28.272Z,9.02
2019-01-31T13:12:28.109Z,8.80
2019-01-31T13:13:28.075Z,8.01